Time;durP1;ratioP1;P1;durP2;ratioP2;P2;SDS_P1;SDS_P2;PMS_P1;PMS_P2;Temp;Humidity;BMP_temperature;BMP_pressure;BME280_temperature;BME280_humidity;BME280_pressure;Samples;Min_cycle;Max_cycle;Signal;HPM_P1;HPM_P2
2023/06/09 00:02:06;;;;;;;19.33;11.43;;;13.00;99.90;;;;;;5082402;28;20123;-75
2023/06/09 00:04:35;;;;;;;22.08;11.90;;;12.90;99.90;;;;;;5087119;28;20024;-73
2023/06/09 00:07:03;;;;;;;20.00;11.68;;;12.90;99.90;;;;;;5068417;28;20063;-73
2023/06/09 00:09:32;;;;;;;18.40;11.93;;;12.90;99.90;;;;;;5067672;28;20631;-72
2023/06/09 00:11:58;;;;;;;21.83;11.88;;;12.90;99.90;;;;;;5068318;28;20064;-74
2023/06/09 00:14:24;;;;;;;20.52;12.48;;;12.90;99.90;;;;;;5069585;28;20043;-74
2023/06/09 00:16:51;;;;;;;21.48;11.60;;;12.90;99.90;;;;;;5092533;28;20032;-73
2023/06/09 00:19:17;;;;;;;19.58;12.45;;;13.00;99.90;;;;;;5076547;28;20116;-73
2023/06/09 00:21:49;;;;;;;21.88;12.30;;;13.00;99.90;;;;;;5088296;28;20016;-73
2023/06/09 00:24:20;;;;;;;19.75;12.05;;;13.00;99.90;;;;;;5077582;28;20091;-73
2023/06/09 00:26:50;;;;;;;19.98;12.07;;;12.90;99.90;;;;;;5072392;28;20034;-73
2023/06/09 00:29:17;;;;;;;18.85;11.55;;;12.90;99.90;;;;;;5085099;28;20047;-73
2023/06/09 00:31:43;;;;;;;18.98;11.70;;;12.80;99.90;;;;;;5090219;28;20465;-73
2023/06/09 00:34:09;;;;;;;24.20;12.13;;;12.80;99.90;;;;;;5091834;28;20028;-75
2023/06/09 00:36:36;;;;;;;20.75;11.90;;;12.80;99.90;;;;;;5092394;28;20039;-73
2023/06/09 00:39:01;;;;;;;25.15;12.57;;;12.80;99.90;;;;;;5075048;28;20094;-73
2023/06/09 00:41:27;;;;;;;22.02;11.88;;;12.80;99.90;;;;;;5074940;28;20035;-73
2023/06/09 00:43:55;;;;;;;18.63;11.15;;;12.80;99.90;;;;;;5078223;28;20051;-74
2023/06/09 00:46:21;;;;;;;20.67;12.25;;;12.80;99.90;;;;;;5082031;28;20079;-74
2023/06/09 00:48:47;;;;;;;16.95;11.35;;;12.80;99.90;;;;;;5089988;28;20087;-73
2023/06/09 00:51:12;;;;;;;21.85;12.80;;;12.90;99.90;;;;;;5094122;28;20079;-73
2023/06/09 00:53:38;;;;;;;20.17;12.20;;;12.90;99.90;;;;;;5112364;28;20532;-73
2023/06/09 00:56:05;;;;;;;20.30;12.38;;;12.90;99.90;;;;;;5112557;28;20406;-73
2023/06/09 00:58:32;;;;;;;21.67;12.68;;;12.80;99.90;;;;;;5111622;28;20024;-73
2023/06/09 01:00:58;;;;;;;27.48;13.07;;;12.90;99.90;;;;;;5112602;28;20035;-73
2023/06/09 01:03:26;;;;;;;25.55;12.50;;;12.80;99.90;;;;;;5097284;28;20043;-73
2023/06/09 01:06:00;;;;;;;22.63;12.57;;;12.80;99.90;;;;;;5086785;28;20115;-73
2023/06/09 01:08:36;;;;;;;22.77;12.68;;;12.70;99.90;;;;;;5080550;28;20049;-73
2023/06/09 01:11:26;;;;;;;23.80;13.38;;;12.80;99.90;;;;;;5089860;28;20717;-73
2023/06/09 01:14:20;;;;;;;21.73;13.15;;;12.80;99.90;;;;;;5090520;28;20117;-73
2023/06/09 01:17:01;;;;;;;22.92;11.88;;;12.80;99.90;;;;;;5102050;28;20036;-73
2023/06/09 01:19:33;;;;;;;23.33;13.30;;;12.90;99.90;;;;;;5090876;28;20039;-75
2023/06/09 01:22:07;;;;;;;21.08;12.75;;;12.90;99.90;;;;;;5076185;27;20043;-74
2023/06/09 01:24:46;;;;;;;19.92;12.15;;;12.90;99.90;;;;;;5071030;28;20029;-74
2023/06/09 01:27:14;;;;;;;24.20;13.38;;;12.70;99.90;;;;;;5102250;28;20033;-76
2023/06/09 01:29:43;;;;;;;21.65;12.60;;;12.70;99.90;;;;;;5071520;28;20058;-73
2023/06/09 01:32:11;;;;;;;21.27;12.35;;;12.70;99.90;;;;;;5099164;28;20383;-73
2023/06/09 01:34:38;;;;;;;20.23;11.48;;;12.70;99.90;;;;;;5080866;28;20039;-74
2023/06/09 01:37:04;;;;;;;19.67;11.90;;;12.60;99.90;;;;;;5090622;28;20082;-75
2023/06/09 01:39:30;;;;;;;19.67;12.25;;;12.40;99.90;;;;;;5088740;28;20926;-73
2023/06/09 01:41:55;;;;;;;21.42;12.13;;;12.30;99.90;;;;;;5086787;28;20047;-73
2023/06/09 01:44:21;;;;;;;22.02;12.05;;;12.10;99.90;;;;;;5078453;28;20059;-73
2023/06/09 01:46:46;;;;;;;20.92;12.13;;;12.00;99.90;;;;;;5091092;28;20056;-73
2023/06/09 01:49:22;;;;;;;20.23;11.77;;;12.00;99.90;;;;;;5090594;28;20078;-75
2023/06/09 01:51:52;;;;;;;20.17;11.63;;;11.90;99.90;;;;;;5082228;28;20079;-73
2023/06/09 01:54:37;;;;;;;19.75;11.57;;;12.00;99.90;;;;;;5081304;28;20028;-73
2023/06/09 01:57:20;;;;;;;21.92;11.23;;;12.00;99.90;;;;;;5073873;28;20056;-73
2023/06/09 01:59:57;;;;;;;20.42;12.23;;;12.10;99.90;;;;;;5084879;28;20036;-73
2023/06/09 02:02:27;;;;;;;20.27;12.15;;;12.00;99.90;;;;;;5074008;28;20031;-73
2023/06/09 02:04:55;;;;;;;20.38;12.05;;;12.00;99.90;;;;;;5084606;28;20103;-73
2023/06/09 02:07:21;;;;;;;22.15;12.65;;;11.90;99.90;;;;;;5087904;28;20451;-73
2023/06/09 02:09:48;;;;;;;20.90;13.20;;;12.00;99.90;;;;;;5090621;28;20031;-74
2023/06/09 02:12:14;;;;;;;21.15;12.70;;;12.00;99.90;;;;;;5089140;28;20092;-76
2023/06/09 02:14:41;;;;;;;23.70;13.23;;;11.90;99.90;;;;;;5089331;28;20032;-73
2023/06/09 02:17:08;;;;;;;21.42;12.68;;;11.90;99.90;;;;;;5090599;28;20082;-73
2023/06/09 02:19:37;;;;;;;22.73;12.38;;;11.90;99.90;;;;;;5092341;28;20023;-75
2023/06/09 02:22:03;;;;;;;22.48;12.80;;;11.90;99.90;;;;;;5073386;28;20020;-74
2023/06/09 02:24:29;;;;;;;22.63;12.75;;;11.90;99.90;;;;;;5089494;28;20036;-74
2023/06/09 02:26:56;;;;;;;22.40;12.88;;;11.90;99.90;;;;;;5090180;28;20027;-73
2023/06/09 02:29:26;;;;;;;21.17;12.23;;;12.00;99.90;;;;;;5089374;28;20079;-74
2023/06/09 02:31:53;;;;;;;23.10;12.77;;;12.00;99.90;;;;;;5089433;28;20035;-74
2023/06/09 02:34:20;;;;;;;22.85;12.23;;;12.00;99.90;;;;;;5084113;28;20040;-76
2023/06/09 02:36:47;;;;;;;21.25;12.82;;;12.00;99.90;;;;;;5069919;28;20576;-74
2023/06/09 02:39:14;;;;;;;20.85;11.73;;;12.00;99.90;;;;;;5069721;28;20024;-74
2023/06/09 02:41:40;;;;;;;23.13;13.07;;;11.90;99.90;;;;;;5081197;28;20024;-73
2023/06/09 02:44:06;;;;;;;21.60;12.57;;;11.80;99.90;;;;;;5089376;28;20036;-74
2023/06/09 02:46:33;;;;;;;22.65;11.77;;;11.80;99.90;;;;;;5087236;28;20062;-73
2023/06/09 02:48:59;;;;;;;22.58;12.95;;;11.80;99.90;;;;;;5078857;28;20059;-74
2023/06/09 02:51:25;;;;;;;23.90;12.93;;;11.70;99.90;;;;;;5109595;28;20028;-73
2023/06/09 02:53:50;;;;;;;22.15;12.65;;;11.70;99.90;;;;;;5091408;28;20036;-73
2023/06/09 02:56:17;;;;;;;21.83;12.98;;;11.70;99.90;;;;;;5089272;28;20039;-76
2023/06/09 02:58:42;;;;;;;26.15;13.45;;;11.70;99.90;;;;;;5101288;28;20031;-73
2023/06/09 03:01:08;;;;;;;21.33;12.57;;;11.70;99.90;;;;;;5110123;28;20023;-74
2023/06/09 03:03:34;;;;;;;23.27;13.55;;;11.80;99.90;;;;;;5096831;28;20057;-73
2023/06/09 03:06:00;;;;;;;20.63;12.07;;;11.90;99.90;;;;;;5089272;28;20388;-73
2023/06/09 03:08:26;;;;;;;20.50;12.02;;;11.80;99.90;;;;;;5076482;28;20073;-74
2023/06/09 03:10:53;;;;;;;23.58;12.85;;;11.70;99.90;;;;;;5087090;28;20486;-73
2023/06/09 03:13:18;;;;;;;21.23;12.48;;;11.60;99.90;;;;;;5088225;28;20021;-76
2023/06/09 03:15:44;;;;;;;23.40;13.05;;;11.60;99.90;;;;;;5082969;28;20032;-74
2023/06/09 03:18:10;;;;;;;28.75;13.68;;;11.60;99.90;;;;;;5077734;28;20047;-73
2023/06/09 03:20:36;;;;;;;19.98;12.30;;;11.60;99.90;;;;;;5079500;28;20033;-73
2023/06/09 03:23:02;;;;;;;21.50;11.55;;;11.60;99.90;;;;;;5073848;28;20033;-73
2023/06/09 03:25:30;;;;;;;20.10;12.02;;;11.50;99.90;;;;;;5087198;28;20028;-74
2023/06/09 03:27:56;;;;;;;23.48;12.80;;;11.40;99.90;;;;;;5093462;28;20061;-73
2023/06/09 03:30:22;;;;;;;21.67;12.85;;;11.30;99.90;;;;;;5087844;28;20139;-75
2023/06/09 03:32:48;;;;;;;25.48;13.25;;;11.30;99.90;;;;;;5085553;28;20036;-74
2023/06/09 03:35:14;;;;;;;29.90;15.05;;;11.30;99.90;;;;;;5089052;28;20106;-74
2023/06/09 03:37:39;;;;;;;23.27;13.93;;;11.40;99.90;;;;;;5088940;28;20032;-72
2023/06/09 03:40:05;;;;;;;25.73;13.80;;;11.30;99.90;;;;;;5075436;28;20086;-74
2023/06/09 03:42:31;;;;;;;21.63;12.70;;;11.40;99.90;;;;;;5108586;28;20031;-74
2023/06/09 03:44:58;;;;;;;25.65;13.18;;;11.40;99.90;;;;;;5103717;28;20032;-74
2023/06/09 03:47:25;;;;;;;22.90;13.23;;;11.50;99.90;;;;;;5084997;28;20047;-76
2023/06/09 03:49:50;;;;;;;22.15;12.48;;;11.40;99.90;;;;;;5067412;28;20489;-74
2023/06/09 03:52:16;;;;;;;27.42;13.15;;;11.40;99.90;;;;;;5081322;28;20035;-74
2023/06/09 03:54:42;;;;;;;22.85;12.73;;;11.50;99.90;;;;;;5082569;28;20609;-74
2023/06/09 03:57:08;;;;;;;25.77;14.13;;;11.60;99.90;;;;;;5082659;28;20032;-74
2023/06/09 03:59:34;;;;;;;23.33;14.15;;;11.70;99.90;;;;;;5085535;28;20028;-73
2023/06/09 04:01:59;;;;;;;25.05;13.60;;;11.60;99.90;;;;;;5080168;28;20069;-73
2023/06/09 04:04:25;;;;;;;23.30;13.30;;;11.50;99.90;;;;;;5077361;28;20315;-74
2023/06/09 04:06:51;;;;;;;29.13;13.15;;;11.60;99.90;;;;;;5088617;28;20430;-73
2023/06/09 04:09:16;;;;;;;21.25;12.63;;;11.70;99.90;;;;;;5088306;28;20028;-73
2023/06/09 04:11:42;;;;;;;23.10;13.13;;;11.80;99.90;;;;;;5085429;28;20093;-73
2023/06/09 04:14:09;;;;;;;24.23;13.52;;;11.80;99.90;;;;;;5087977;28;20024;-74
2023/06/09 04:16:34;;;;;;;21.15;12.43;;;11.90;99.90;;;;;;5084162;28;20032;-74
2023/06/09 04:19:00;;;;;;;22.08;12.75;;;11.90;99.90;;;;;;5081256;28;20039;-73
2023/06/09 04:21:26;;;;;;;24.95;12.60;;;11.90;99.90;;;;;;5108062;28;20032;-73
2023/06/09 04:23:52;;;;;;;25.92;13.68;;;12.00;99.90;;;;;;5108799;28;20027;-72
2023/06/09 04:26:17;;;;;;;25.88;14.07;;;12.00;99.90;;;;;;5107051;28;20046;-73
2023/06/09 04:28:43;;;;;;;22.23;13.00;;;12.00;99.90;;;;;;5085336;28;20040;-73
2023/06/09 04:31:10;;;;;;;25.00;14.13;;;12.00;99.90;;;;;;5088515;28;20111;-73
2023/06/09 04:33:36;;;;;;;23.67;13.85;;;12.00;99.90;;;;;;5075833;28;20040;-73
2023/06/09 04:36:03;;;;;;;23.30;13.55;;;12.10;99.90;;;;;;5077974;28;20029;-73
2023/06/09 04:38:33;;;;;;;22.45;13.18;;;12.20;99.90;;;;;;5070082;28;20037;-74
2023/06/09 04:41:01;;;;;;;22.95;12.95;;;12.40;99.90;;;;;;5085118;28;20465;-74
2023/06/09 04:43:28;;;;;;;23.85;12.73;;;12.60;99.90;;;;;;5087753;28;20823;-74
2023/06/09 04:45:55;;;;;;;21.80;12.48;;;12.70;99.90;;;;;;5075999;28;20044;-74
2023/06/09 04:48:21;;;;;;;24.17;13.48;;;12.80;99.90;;;;;;5076026;28;20040;-74
2023/06/09 04:50:47;;;;;;;22.00;13.07;;;12.80;99.90;;;;;;5078182;28;20500;-73
2023/06/09 04:53:15;;;;;;;21.70;12.63;;;13.00;99.90;;;;;;5090831;28;20394;-74
2023/06/09 04:55:41;;;;;;;21.98;12.95;;;13.10;99.90;;;;;;5081313;28;20393;-74
2023/06/09 04:58:07;;;;;;;21.83;13.63;;;13.30;99.90;;;;;;5088219;28;20035;-74
2023/06/09 05:00:33;;;;;;;21.58;13.07;;;13.40;99.90;;;;;;5084885;28;20040;-74
2023/06/09 05:03:05;;;;;;;23.75;12.75;;;13.60;99.90;;;;;;5071459;28;20028;-74
2023/06/09 05:05:31;;;;;;;21.75;12.38;;;13.80;99.90;;;;;;5078514;28;20028;-74
2023/06/09 05:07:56;;;;;;;22.38;13.00;;;13.90;99.90;;;;;;5091903;28;20059;-74
2023/06/09 05:10:22;;;;;;;20.98;13.02;;;14.10;99.90;;;;;;5090832;28;20106;-76
2023/06/09 05:12:48;;;;;;;21.67;13.10;;;14.40;99.90;;;;;;5088504;28;20028;-75
2023/06/09 05:15:14;;;;;;;22.42;13.50;;;14.60;99.90;;;;;;5091136;28;20076;-75
2023/06/09 05:17:42;;;;;;;23.20;13.38;;;14.80;99.90;;;;;;5089650;28;20529;-73
2023/06/09 05:20:09;;;;;;;22.52;12.63;;;15.00;99.90;;;;;;5091619;28;20461;-74
2023/06/09 05:22:36;;;;;;;25.27;13.77;;;15.00;99.90;;;;;;5093399;28;20138;-75
2023/06/09 05:25:03;;;;;;;20.75;13.13;;;15.00;99.90;;;;;;5095588;28;20130;-75
2023/06/09 05:27:29;;;;;;;21.48;13.27;;;15.00;99.90;;;;;;5090626;28;20430;-75
2023/06/09 05:29:56;;;;;;;21.88;13.65;;;15.20;99.90;;;;;;5091633;28;20028;-75
2023/06/09 05:32:21;;;;;;;27.85;14.07;;;15.30;99.90;;;;;;5091504;28;20069;-74
2023/06/09 05:34:47;;;;;;;25.00;14.27;;;15.50;99.90;;;;;;5107392;28;20822;-75
2023/06/09 05:37:15;;;;;;;24.45;14.50;;;15.70;99.90;;;;;;5093089;28;20035;-75
2023/06/09 05:39:40;;;;;;;23.05;13.18;;;15.90;99.90;;;;;;5090666;28;20456;-75
2023/06/09 05:42:08;;;;;;;27.92;14.18;;;16.10;99.90;;;;;;5090983;28;20026;-75
2023/06/09 05:44:33;;;;;;;23.65;12.93;;;16.30;99.90;;;;;;5101735;28;20168;-76
2023/06/09 05:46:59;;;;;;;19.15;12.65;;;16.40;99.90;;;;;;5107138;28;20139;-76
2023/06/09 05:49:24;;;;;;;20.92;12.27;;;16.60;99.90;;;;;;5091073;28;20039;-77
2023/06/09 05:51:50;;;;;;;18.75;11.88;;;16.80;99.90;;;;;;5090122;28;20353;-75
2023/06/09 05:54:17;;;;;;;18.20;11.32;;;16.90;99.90;;;;;;5099602;28;20128;-76
2023/06/09 05:56:44;;;;;;;19.23;12.35;;;17.10;99.90;;;;;;5074086;28;20032;-76
2023/06/09 05:59:10;;;;;;;18.35;11.38;;;17.30;99.90;;;;;;5070615;28;20043;-75
2023/06/09 06:01:36;;;;;;;18.02;9.95;;;17.40;99.90;;;;;;5069821;28;20032;-76
2023/06/09 06:04:01;;;;;;;21.10;10.90;;;17.60;99.90;;;;;;5084027;28;20779;-75
2023/06/09 06:06:27;;;;;;;17.60;10.40;;;17.80;99.90;;;;;;5092314;28;20136;-78
2023/06/09 06:08:52;;;;;;;24.80;12.20;;;18.00;99.90;;;;;;5090078;28;20063;-77
2023/06/09 06:11:18;;;;;;;15.90;10.40;;;18.10;99.90;;;;;;5081822;28;20033;-76
2023/06/09 06:13:44;;;;;;;20.15;10.02;;;18.30;99.90;;;;;;5099488;27;20119;-75
2023/06/09 06:16:09;;;;;;;21.05;11.02;;;18.40;99.90;;;;;;5088366;28;20028;-76
2023/06/09 06:18:38;;;;;;;19.88;11.65;;;18.50;99.90;;;;;;5088136;28;20042;-77
2023/06/09 06:21:03;;;;;;;18.00;11.23;;;18.60;99.90;;;;;;5107528;28;20104;-76
2023/06/09 06:23:29;;;;;;;18.45;11.50;;;18.70;99.90;;;;;;5110431;28;20410;-78
2023/06/09 06:25:55;;;;;;;16.20;10.20;;;18.80;99.90;;;;;;5110529;28;20024;-75
2023/06/09 06:28:22;;;;;;;18.50;10.38;;;18.90;99.90;;;;;;5108572;28;20033;-75
2023/06/09 06:30:47;;;;;;;13.07;8.75;;;19.00;99.90;;;;;;5100814;28;20047;-75
2023/06/09 06:33:14;;;;;;;13.75;8.98;;;19.10;99.90;;;;;;5110887;28;20020;-75
2023/06/09 06:35:40;;;;;;;14.20;9.18;;;19.30;99.90;;;;;;5097879;28;20085;-76
2023/06/09 06:38:05;;;;;;;14.68;9.18;;;19.50;99.90;;;;;;5089918;28;20043;-76
2023/06/09 06:40:32;;;;;;;15.45;9.73;;;19.70;99.90;;;;;;5081843;28;20426;-78
2023/06/09 06:42:57;;;;;;;14.73;9.52;;;19.90;99.90;;;;;;5090207;28;20426;-75
2023/06/09 06:45:23;;;;;;;19.02;9.65;;;20.00;99.90;;;;;;5089775;28;20051;-75
2023/06/09 06:47:49;;;;;;;15.63;9.60;;;19.90;99.90;;;;;;5089283;28;20028;-75
2023/06/09 06:50:15;;;;;;;16.25;10.52;;;19.90;99.90;;;;;;5081642;28;20051;-75
2023/06/09 06:52:41;;;;;;;23.25;11.27;;;20.10;99.90;;;;;;5084940;28;20042;-73
2023/06/09 06:55:08;;;;;;;16.40;10.75;;;20.10;99.90;;;;;;5088457;28;20031;-75
2023/06/09 06:57:38;;;;;;;19.38;11.48;;;20.10;99.90;;;;;;5087430;28;20028;-75
2023/06/09 07:00:13;;;;;;;22.58;11.93;;;20.00;99.90;;;;;;5089909;28;20085;-72
2023/06/09 07:02:40;;;;;;;18.20;11.27;;;20.00;99.90;;;;;;5093399;28;20027;-75
2023/06/09 07:05:09;;;;;;;14.95;10.35;;;20.00;99.90;;;;;;5107078;28;20061;-75
2023/06/09 07:07:34;;;;;;;21.42;10.35;;;20.00;99.90;;;;;;5107713;28;20053;-76
2023/06/09 07:10:01;;;;;;;13.60;9.13;;;20.30;99.90;;;;;;5109951;28;20456;-74
2023/06/09 07:12:27;;;;;;;20.58;11.02;;;20.60;99.90;;;;;;5110010;28;20035;-74
2023/06/09 07:14:53;;;;;;;18.77;10.73;;;20.70;99.90;;;;;;5107256;28;20034;-75
2023/06/09 07:17:18;;;;;;;14.95;9.55;;;20.80;99.90;;;;;;5103270;28;20042;-76
2023/06/09 07:19:44;;;;;;;21.35;9.95;;;20.90;99.90;;;;;;5087221;28;20031;-74
2023/06/09 07:22:10;;;;;;;14.70;9.10;;;21.20;99.90;;;;;;5089404;28;20020;-75
2023/06/09 07:24:35;;;;;;;15.07;8.73;;;21.30;99.90;;;;;;5086701;28;20024;-76
2023/06/09 07:27:01;;;;;;;15.00;9.57;;;21.50;99.90;;;;;;5108140;28;20072;-75
2023/06/09 07:29:27;;;;;;;16.08;9.32;;;21.40;99.90;;;;;;5108134;28;20130;-76
2023/06/09 07:31:53;;;;;;;14.70;8.82;;;21.50;99.90;;;;;;5108803;28;20024;-75
2023/06/09 07:34:18;;;;;;;14.05;8.70;;;21.70;99.90;;;;;;5093889;28;20035;-76
2023/06/09 07:36:50;;;;;;;15.05;7.63;;;21.80;99.90;;;;;;5105558;28;20028;-76
2023/06/09 07:39:17;;;;;;;13.18;7.30;;;21.90;99.90;;;;;;5108014;28;20387;-75
2023/06/09 07:41:42;;;;;;;12.88;7.32;;;22.10;99.90;;;;;;5108661;28;20020;-77
2023/06/09 07:44:09;;;;;;;12.77;6.75;;;22.20;99.90;;;;;;5109402;28;20034;-76
2023/06/09 07:46:35;;;;;;;7.93;5.00;;;22.30;99.90;;;;;;5106482;28;20399;-78
2023/06/09 07:49:00;;;;;;;8.70;5.55;;;22.40;99.90;;;;;;5087863;28;20111;-75
2023/06/09 07:51:26;;;;;;;12.30;4.80;;;22.50;99.90;;;;;;5088863;28;20056;-75
2023/06/09 07:53:52;;;;;;;7.07;5.00;;;22.50;99.90;;;;;;5088145;28;20099;-73
2023/06/09 07:56:18;;;;;;;8.23;5.15;;;22.40;99.90;;;;;;5135269;27;20523;-75
2023/06/09 07:58:44;;;;;;;7.35;5.13;;;22.30;99.90;;;;;;5108671;28;20030;-74
2023/06/09 08:01:10;;;;;;;10.80;5.25;;;22.30;99.90;;;;;;5106962;28;20032;-74
2023/06/09 08:03:35;;;;;;;7.18;5.07;;;22.30;99.90;;;;;;5108500;28;20465;-77
2023/06/09 08:06:02;;;;;;;10.88;5.57;;;22.30;99.90;;;;;;5108949;28;20076;-74
2023/06/09 08:08:31;;;;;;;7.07;4.93;;;22.40;99.90;;;;;;5109031;28;20039;-76
2023/06/09 08:10:58;;;;;;;9.65;5.03;;;22.40;99.90;;;;;;5107052;28;20035;-76
2023/06/09 08:13:24;;;;;;;10.13;5.15;;;22.70;99.90;;;;;;5079190;28;20063;-76
2023/06/09 08:15:50;;;;;;;8.43;4.85;;;22.90;99.90;;;;;;5067412;28;20538;-76
2023/06/09 08:18:16;;;;;;;7.28;5.07;;;23.00;99.90;;;;;;5082813;28;20036;-77
2023/06/09 08:20:41;;;;;;;7.30;4.90;;;23.10;99.90;;;;;;5096831;28;20032;-77
2023/06/09 08:23:07;;;;;;;8.85;5.00;;;23.10;99.90;;;;;;5108859;28;20034;-75
2023/06/09 08:25:34;;;;;;;8.63;4.50;;;23.00;99.90;;;;;;5108844;28;20071;-74
2023/06/09 08:28:03;;;;;;;7.35;4.50;;;23.00;99.90;;;;;;5106660;28;20042;-73
2023/06/09 08:30:28;;;;;;;9.60;4.47;;;23.00;99.90;;;;;;5106264;28;20063;-77
2023/06/09 08:32:54;;;;;;;7.00;4.65;;;23.00;99.90;;;;;;5107839;28;20051;-77
2023/06/09 08:35:21;;;;;;;7.30;4.85;;;23.00;99.90;;;;;;5107466;28;20096;-75
2023/06/09 08:37:47;;;;;;;5.78;4.43;;;23.20;99.90;;;;;;5112123;28;20032;-75
2023/06/09 08:40:13;;;;;;;6.75;4.43;;;23.30;99.90;;;;;;5111633;28;20085;-75
2023/06/09 08:42:39;;;;;;;6.13;4.40;;;23.50;99.90;;;;;;5110334;28;20085;-79
2023/06/09 08:45:05;;;;;;;12.38;4.43;;;23.60;99.90;;;;;;5112385;28;20111;-76
2023/06/09 08:47:33;;;;;;;5.70;4.38;;;23.70;99.90;;;;;;5103937;28;20044;-75
2023/06/09 08:49:59;;;;;;;6.28;4.65;;;24.00;99.90;;;;;;5092872;28;20029;-74
2023/06/09 08:52:26;;;;;;;7.70;4.70;;;23.90;99.90;;;;;;5112624;28;20027;-75
2023/06/09 08:54:56;;;;;;;7.30;4.85;;;23.70;99.90;;;;;;5112062;28;20080;-77
2023/06/09 08:57:22;;;;;;;6.68;4.50;;;23.40;99.90;;;;;;5112508;28;20035;-77
2023/06/09 08:59:48;;;;;;;10.02;5.07;;;23.30;99.90;;;;;;5107958;28;20122;-75
2023/06/09 09:02:14;;;;;;;8.30;4.80;;;23.70;99.90;;;;;;5112680;28;20096;-75
2023/06/09 09:04:40;;;;;;;6.68;4.70;;;23.80;99.90;;;;;;5111727;28;20444;-80
2023/06/09 09:07:06;;;;;;;7.97;4.75;;;24.00;99.90;;;;;;5111875;28;20546;-77
2023/06/09 09:09:33;;;;;;;8.02;4.68;;;24.20;99.70;;;;;;5110904;28;20096;-77
2023/06/09 09:11:59;;;;;;;7.47;4.40;;;24.30;99.50;;;;;;5108419;28;20038;-77
2023/06/09 09:14:25;;;;;;;6.90;4.25;;;24.10;99.50;;;;;;5112140;28;20076;-75
2023/06/09 09:16:51;;;;;;;8.73;4.20;;;24.30;99.30;;;;;;5083510;27;20028;-76
2023/06/09 09:19:28;;;;;;;5.05;3.88;;;24.40;97.00;;;;;;5077821;28;20098;-77
2023/06/09 09:22:01;;;;;;;8.30;3.80;;;24.30;97.50;;;;;;5103505;28;20036;-78
2023/06/09 09:24:29;;;;;;;6.50;3.50;;;24.50;96.50;;;;;;5081894;28;20032;-75
2023/06/09 09:26:56;;;;;;;7.45;3.75;;;24.80;95.30;;;;;;5090612;28;20032;-76
2023/06/09 09:29:28;;;;;;;5.57;4.18;;;24.90;94.00;;;;;;5123471;27;20206;-76
2023/06/09 09:31:58;;;;;;;6.72;4.18;;;24.90;93.60;;;;;;5104704;28;20088;-78
2023/06/09 09:34:31;;;;;;;7.15;3.97;;;25.10;94.90;;;;;;5070809;28;20358;-77
2023/06/09 09:36:57;;;;;;;4.65;3.65;;;25.30;94.40;;;;;;5089561;28;20051;-77
2023/06/09 09:39:23;;;;;;;6.03;4.43;;;25.50;94.00;;;;;;5089806;28;20039;-78
2023/06/09 09:42:08;;;;;;;6.22;4.78;;;25.50;92.40;;;;;;5100657;28;20036;-77
2023/06/09 09:44:38;;;;;;;10.40;4.45;;;25.50;92.90;;;;;;5087706;28;20032;-75
2023/06/09 09:47:10;;;;;;;4.32;3.47;;;25.40;90.50;;;;;;5086709;28;20059;-77
2023/06/09 09:49:36;;;;;;;6.18;4.18;;;25.40;89.10;;;;;;5079732;28;20028;-77
2023/06/09 09:52:06;;;;;;;6.25;4.30;;;25.50;91.40;;;;;;5090222;28;20024;-78
2023/06/09 09:54:35;;;;;;;6.15;4.55;;;25.60;90.60;;;;;;5087197;28;20077;-75
2023/06/09 09:57:01;;;;;;;8.35;3.95;;;25.60;90.10;;;;;;5083764;28;20568;-76
2023/06/09 09:59:27;;;;;;;7.40;3.92;;;25.70;89.20;;;;;;5081812;28;20040;-77
2023/06/09 10:01:55;;;;;;;9.27;4.15;;;25.60;90.30;;;;;;5069903;28;20110;-76
2023/06/09 10:04:23;;;;;;;5.72;4.03;;;25.50;89.20;;;;;;5073405;28;20032;-77
2023/06/09 10:06:53;;;;;;;4.93;4.00;;;25.40;88.60;;;;;;5075991;28;20032;-76
2023/06/09 10:09:25;;;;;;;7.05;4.53;;;25.60;89.20;;;;;;5088382;28;20128;-77
2023/06/09 10:11:55;;;;;;;7.13;4.68;;;25.60;90.40;;;;;;5089944;28;20089;-75
2023/06/09 10:14:21;;;;;;;5.55;4.10;;;25.60;90.20;;;;;;5091388;28;20388;-78
2023/06/09 10:16:49;;;;;;;7.88;4.78;;;25.90;90.20;;;;;;5080492;28;20498;-81
2023/06/09 10:19:17;;;;;;;7.15;4.68;;;26.00;89.00;;;;;;5091254;28;20031;-75
2023/06/09 10:21:43;;;;;;;7.43;4.57;;;25.90;89.00;;;;;;5072222;28;20036;-78
2023/06/09 10:24:11;;;;;;;6.85;4.40;;;25.80;88.90;;;;;;5079899;28;20376;-76
2023/06/09 10:26:38;;;;;;;7.85;4.82;;;25.40;89.00;;;;;;5079752;28;20071;-77
2023/06/09 10:29:11;;;;;;;5.90;4.47;;;25.30;88.60;;;;;;5073112;28;20139;-76
2023/06/09 10:31:40;;;;;;;6.97;4.82;;;25.30;88.40;;;;;;5070209;28;20051;-77
2023/06/09 10:34:08;;;;;;;7.60;4.68;;;25.60;89.20;;;;;;5085739;28;20523;-78
2023/06/09 10:36:43;;;;;;;6.90;4.93;;;25.80;90.50;;;;;;5087703;28;20028;-75
2023/06/09 10:39:22;;;;;;;6.18;4.55;;;25.40;87.30;;;;;;5089374;28;20127;-75
2023/06/09 10:41:59;;;;;;;5.45;4.50;;;25.20;87.80;;;;;;5089266;28;20032;-75
2023/06/09 10:44:33;;;;;;;6.57;4.78;;;25.40;88.80;;;;;;5088956;28;20495;-75
2023/06/09 10:46:59;;;;;;;9.95;5.07;;;25.80;85.80;;;;;;5121320;27;20109;-76
2023/06/09 10:49:40;;;;;;;6.70;4.65;;;25.80;84.40;;;;;;5085254;28;20031;-76
2023/06/09 10:52:28;;;;;;;7.78;5.28;;;25.80;86.00;;;;;;5089187;28;20136;-77
2023/06/09 10:55:11;;;;;;;6.13;4.55;;;26.00;84.30;;;;;;5069709;28;20523;-77
2023/06/09 10:57:38;;;;;;;10.48;5.18;;;25.90;85.30;;;;;;5081510;28;20089;-77
2023/06/09 11:00:11;;;;;;;6.55;4.30;;;26.00;85.60;;;;;;5078025;28;20099;-76
2023/06/09 11:02:37;;;;;;;7.75;4.93;;;26.10;83.20;;;;;;5087904;28;20081;-77
2023/06/09 11:05:04;;;;;;;8.18;4.90;;;26.10;83.70;;;;;;5076510;28;20681;-78
2023/06/09 11:07:33;;;;;;;6.78;4.55;;;25.80;87.30;;;;;;5074214;28;20059;-76
2023/06/09 11:09:58;;;;;;;6.43;4.45;;;26.00;84.20;;;;;;5081829;28;20101;-75
2023/06/09 11:12:28;;;;;;;5.65;4.50;;;26.20;83.70;;;;;;5085251;28;20457;-75
2023/06/09 11:14:58;;;;;;;6.28;4.20;;;26.30;81.30;;;;;;5085270;28;20032;-78
2023/06/09 11:17:39;;;;;;;6.50;4.72;;;26.50;81.40;;;;;;5074877;28;20512;-75
2023/06/09 11:20:20;;;;;;;6.32;4.57;;;26.80;78.80;;;;;;5082623;28;20679;-82
2023/06/09 11:22:49;;;;;;;6.78;4.72;;;26.20;81.80;;;;;;5070961;28;20090;-82
2023/06/09 11:25:15;;;;;;;7.65;4.65;;;26.00;84.10;;;;;;5106904;27;20044;-76
2023/06/09 11:27:44;;;;;;;5.20;4.00;;;25.90;81.70;;;;;;5074993;28;20043;-76
2023/06/09 11:30:20;;;;;;;7.18;4.30;;;26.00;78.10;;;;;;5074102;28;20032;-78
2023/06/09 11:32:47;;;;;;;9.27;4.75;;;26.50;80.20;;;;;;5076087;28;20495;-79
2023/06/09 11:35:30;;;;;;;5.50;4.65;;;26.80;77.80;;;;;;5074807;28;20111;-77
2023/06/09 11:38:07;;;;;;;6.05;4.60;;;26.90;77.30;;;;;;5088837;28;20512;-78
2023/06/09 11:40:50;;;;;;;5.53;4.35;;;27.30;77.30;;;;;;5086317;28;20035;-78
2023/06/09 11:43:16;;;;;;;8.52;4.95;;;27.50;74.70;;;;;;5088385;28;20487;-76
2023/06/09 11:45:43;;;;;;;7.20;5.13;;;27.50;75.00;;;;;;5086170;28;20056;-75
2023/06/09 11:48:08;;;;;;;10.05;4.75;;;26.70;75.80;;;;;;5086035;28;20047;-75
2023/06/09 11:50:45;;;;;;;9.43;4.90;;;25.80;77.10;;;;;;5106029;27;20032;-76
2023/06/09 11:53:21;;;;;;;6.72;4.78;;;25.60;79.20;;;;;;5082099;28;20443;-77
2023/06/09 11:55:55;;;;;;;9.60;4.80;;;26.10;78.90;;;;;;5085749;28;20115;-80
2023/06/09 11:58:22;;;;;;;7.15;4.82;;;26.80;77.20;;;;;;5087340;28;20483;-76
2023/06/09 12:00:49;;;;;;;8.02;5.25;;;26.80;73.90;;;;;;5084304;28;20047;-77
2023/06/09 12:03:21;;;;;;;7.10;5.13;;;26.40;74.70;;;;;;5082934;28;20071;-75
2023/06/09 12:05:48;;;;;;;9.90;5.10;;;26.40;75.90;;;;;;5084040;28;20024;-79
2023/06/09 12:08:13;;;;;;;8.48;5.18;;;26.90;74.20;;;;;;5082057;28;20750;-78
2023/06/09 12:10:39;;;;;;;7.05;5.25;;;27.20;74.50;;;;;;5080175;28;20048;-77
2023/06/09 12:13:06;;;;;;;10.50;5.00;;;27.50;72.50;;;;;;5085041;28;20028;-77
2023/06/09 12:15:31;;;;;;;9.00;5.28;;;27.90;71.50;;;;;;5073394;28;20457;-75
2023/06/09 12:17:58;;;;;;;7.85;5.45;;;27.80;68.50;;;;;;5081218;28;20066;-76
2023/06/09 12:20:37;;;;;;;11.63;5.25;;;27.60;71.30;;;;;;5104849;28;20031;-77
2023/06/09 12:23:14;;;;;;;6.72;5.43;;;27.80;70.90;;;;;;5067641;28;20090;-75
2023/06/09 12:25:44;;;;;;;11.77;5.28;;;27.70;67.60;;;;;;5067752;28;20036;-77
2023/06/09 12:28:21;;;;;;;;;;;27.90;69.60;;;;;;5067346;28;20290;-75
2023/06/09 12:30:54;;;;;;;9.40;5.30;;;28.00;67.60;;;;;;5082041;28;20015;-79
2023/06/09 12:33:29;;;;;;;6.07;5.00;;;27.70;65.60;;;;;;5086101;28;20368;-78
2023/06/09 12:36:02;;;;;;;6.15;4.95;;;27.60;68.40;;;;;;5068143;28;20028;-75
2023/06/09 12:38:28;;;;;;;8.43;5.22;;;27.70;66.00;;;;;;5070246;28;20055;-76
2023/06/09 12:40:55;;;;;;;8.60;5.00;;;27.70;65.10;;;;;;5067132;28;20529;-75